Time;durP1;ratioP1;P1;durP2;ratioP2;P2;SDS_P1;SDS_P2;PMS_P1;PMS_P2;Temp;Humidity;BMP_temperature;BMP_pressure;BME280_temperature;BME280_humidity;BME280_pressure;Samples;Min_cycle;Max_cycle;Signal;HPM_P1;HPM_P2
2023/08/16 00:03:45;;;;;;;10.40;7.60;;;;;;;;;;8106141;29;20139;-88
2023/08/16 00:07:48;;;;;;;12.07;7.22;;;;;;;;;;8106243;29;20131;-88
2023/08/16 00:11:51;;;;;;;14.15;7.70;;;;;;;;;;8106067;29;20062;-88
2023/08/16 00:15:56;;;;;;;14.57;7.40;;;;;;;;;;8106108;29;20087;-89
2023/08/16 00:19:58;;;;;;;12.68;7.63;;;;;;;;;;8105728;29;20064;-88
2023/08/16 00:24:01;;;;;;;13.15;8.45;;;;;;;;;;8105737;29;20111;-88
2023/08/16 00:28:04;;;;;;;13.45;8.68;;;;;;;;;;8105669;29;20475;-88
2023/08/16 00:32:10;;;;;;;13.30;9.05;;;;;;;;;;8105937;29;20075;-88
2023/08/16 00:36:13;;;;;;;13.68;9.50;;;;;;;;;;8105830;29;20056;-88
2023/08/16 00:40:16;;;;;;;12.75;9.20;;;;;;;;;;8105879;29;20580;-88
2023/08/16 00:44:19;;;;;;;13.95;8.55;;;;;;;;;;8105554;29;20486;-88
2023/08/16 00:48:24;;;;;;;18.70;9.85;;;;;;;;;;8105492;29;20136;-87
2023/08/16 00:52:27;;;;;;;14.43;9.70;;;;;;;;;;8106916;29;20060;-87
2023/08/16 00:56:30;;;;;;;13.18;9.35;;;;;;;;;;8111659;29;20099;-88
2023/08/16 01:00:34;;;;;;;13.68;10.23;;;;;;;;;;8111735;29;20060;-88
2023/08/16 01:04:38;;;;;;;11.50;9.05;;;;;;;;;;8111480;29;20144;-88
2023/08/16 01:08:41;;;;;;;11.88;9.23;;;;;;;;;;8111064;29;20076;-88
2023/08/16 01:12:48;;;;;;;13.60;9.60;;;;;;;;;;8111178;29;20057;-87
2023/08/16 01:16:53;;;;;;;14.50;9.98;;;;;;;;;;8110135;29;20434;-88
2023/08/16 01:20:58;;;;;;;13.40;9.30;;;;;;;;;;8098909;29;20064;-88
2023/08/16 01:25:12;;;;;;;14.32;9.38;;;;;;;;;;8105560;29;20065;-88
2023/08/16 01:29:17;;;;;;;15.82;9.35;;;;;;;;;;8111003;29;20052;-88
2023/08/16 01:33:20;;;;;;;12.02;9.73;;;;;;;;;;8110870;29;20135;-88
2023/08/16 01:37:23;;;;;;;13.75;9.00;;;;;;;;;;8110617;29;20056;-88
2023/08/16 01:41:32;;;;;;;12.45;9.02;;;;;;;;;;8110427;29;20056;-88
2023/08/16 01:45:36;;;;;;;12.50;9.55;;;;;;;;;;8110269;29;20060;-89
2023/08/16 01:49:40;;;;;;;12.57;9.85;;;;;;;;;;8110210;29;20493;-88
2023/08/16 01:53:43;;;;;;;13.57;9.77;;;;;;;;;;8110282;29;20056;-88
2023/08/16 01:57:47;;;;;;;16.58;9.80;;;;;;;;;;8110010;29;20450;-87
2023/08/16 02:01:51;;;;;;;13.55;9.38;;;;;;;;;;8110062;29;20060;-87
2023/08/16 02:05:54;;;;;;;15.23;9.65;;;;;;;;;;8109258;29;20053;-87
2023/08/16 02:09:57;;;;;;;14.90;10.95;;;;;;;;;;8109695;29;20057;-89
2023/08/16 02:14:00;;;;;;;14.80;10.07;;;;;;;;;;8109741;29;20053;-87
2023/08/16 02:18:10;;;;;;;16.48;10.02;;;;;;;;;;8109622;29;20135;-88
2023/08/16 02:22:13;;;;;;;12.18;10.25;;;;;;;;;;8109072;29;20061;-89
2023/08/16 02:26:16;;;;;;;14.85;10.63;;;;;;;;;;8109423;29;20056;-88
2023/08/16 02:30:19;;;;;;;17.73;11.30;;;;;;;;;;8108940;29;20048;-87
2023/08/16 02:34:23;;;;;;;14.60;11.45;;;;;;;;;;8109067;29;20060;-88
2023/08/16 02:38:26;;;;;;;14.48;10.93;;;;;;;;;;8108721;29;20068;-88
2023/08/16 02:42:29;;;;;;;14.23;11.82;;;;;;;;;;8108820;29;20143;-88
2023/08/16 02:46:32;;;;;;;17.75;12.07;;;;;;;;;;8102232;29;20132;-89
2023/08/16 02:50:36;;;;;;;17.15;11.95;;;;;;;;;;8094250;29;20060;-88
2023/08/16 02:54:39;;;;;;;15.38;11.85;;;;;;;;;;8108509;29;20065;-89
2023/08/16 02:58:42;;;;;;;19.73;13.50;;;;;;;;;;8107274;29;20061;-88
2023/08/16 03:02:45;;;;;;;41.95;21.83;;;;;;;;;;8108262;29;20112;-88
2023/08/16 03:06:49;;;;;;;45.78;21.15;;;;;;;;;;8104650;29;20063;-87
2023/08/16 03:10:52;;;;;;;27.92;16.48;;;;;;;;;;8106860;29;20052;-89
2023/08/16 03:14:55;;;;;;;19.27;13.48;;;;;;;;;;8104617;29;20461;-88
2023/08/16 03:19:00;;;;;;;19.40;13.35;;;;;;;;;;8093779;29;20127;-88
2023/08/16 03:23:04;;;;;;;16.70;12.88;;;;;;;;;;8083304;29;20057;-89
2023/08/16 03:27:08;;;;;;;17.98;13.82;;;;;;;;;;8081735;29;20553;-89
2023/08/16 03:31:11;;;;;;;16.17;11.95;;;;;;;;;;8084535;29;20139;-88
2023/08/16 03:35:14;;;;;;;17.10;13.32;;;;;;;;;;8088620;29;20132;-89
2023/08/16 03:39:19;;;;;;;21.02;13.20;;;;;;;;;;8079533;29;20135;-89
2023/08/16 03:43:22;;;;;;;16.85;14.07;;;;;;;;;;8155103;23;20059;-89
2023/08/16 03:47:25;;;;;;;17.45;13.23;;;;;;;;;;8104055;29;20494;-89
2023/08/16 03:51:28;;;;;;;17.08;13.15;;;;;;;;;;8079690;29;20104;-89
2023/08/16 03:55:32;;;;;;;16.48;12.85;;;;;;;;;;8081361;29;20060;-88
2023/08/16 03:59:35;;;;;;;16.67;13.27;;;;;;;;;;8083421;29;20071;-88
2023/08/16 04:03:38;;;;;;;18.40;13.13;;;;;;;;;;8078598;29;20088;-89
2023/08/16 04:07:42;;;;;;;19.65;13.18;;;;;;;;;;8069984;29;20068;-89
2023/08/16 04:11:52;;;;;;;15.32;12.30;;;;;;;;;;8058504;29;20168;-88
2023/08/16 04:15:56;;;;;;;16.60;11.88;;;;;;;;;;8076028;29;20068;-89
2023/08/16 04:19:59;;;;;;;16.88;11.30;;;;;;;;;;8079176;29;20060;-88
2023/08/16 04:24:02;;;;;;;14.95;10.70;;;;;;;;;;8104688;29;20084;-88
2023/08/16 04:28:07;;;;;;;11.73;9.73;;;;;;;;;;8104550;29;20091;-89
2023/08/16 04:32:10;;;;;;;11.18;9.18;;;;;;;;;;8104552;29;20103;-87
2023/08/16 04:36:13;;;;;;;10.90;8.90;;;;;;;;;;8104554;29;20084;-88
2023/08/16 04:40:16;;;;;;;11.55;8.88;;;;;;;;;;8060179;29;1313139;-88
2023/08/16 04:44:20;;;;;;;15.50;9.75;;;;;;;;;;8105561;29;20155;-88
2023/08/16 04:48:23;;;;;;;11.82;9.02;;;;;;;;;;8105872;29;20087;-88
2023/08/16 04:52:26;;;;;;;13.15;8.48;;;;;;;;;;8091117;29;20063;-88
2023/08/16 04:56:29;;;;;;;10.95;8.90;;;;;;;;;;8102715;29;20193;-88
2023/08/16 05:00:33;;;;;;;13.65;9.52;;;;;;;;;;8102720;29;20136;-88
2023/08/16 05:04:36;;;;;;;12.70;9.70;;;;;;;;;;8102896;29;20494;-88
2023/08/16 05:08:39;;;;;;;11.98;8.30;;;;;;;;;;8105070;29;20067;-88
2023/08/16 05:12:42;;;;;;;14.30;8.02;;;;;;;;;;8103352;29;20059;-89
2023/08/16 05:16:47;;;;;;;12.10;7.88;;;;;;;;;;8074992;29;20075;-89
2023/08/16 05:20:50;;;;;;;9.88;7.53;;;;;;;;;;8102352;29;20524;-89
2023/08/16 05:24:52;;;;;;;13.60;7.32;;;;;;;;;;8086896;29;20056;-88
2023/08/16 05:28:55;;;;;;;9.32;6.20;;;;;;;;;;8105077;29;20063;-88
2023/08/16 05:32:59;;;;;;;10.75;7.28;;;;;;;;;;8103016;29;20059;-88
2023/08/16 05:37:05;;;;;;;10.88;7.43;;;;;;;;;;8095178;29;20108;-88
2023/08/16 05:41:08;;;;;;;10.13;5.93;;;;;;;;;;8109589;29;20135;-89
2023/08/16 05:45:11;;;;;;;12.63;5.80;;;;;;;;;;8087750;29;20056;-89
2023/08/16 05:49:15;;;;;;;9.52;5.20;;;;;;;;;;8110251;29;20079;-89
2023/08/16 05:53:18;;;;;;;10.85;6.10;;;;;;;;;;8110033;29;20076;-89
2023/08/16 05:57:21;;;;;;;6.93;4.60;;;;;;;;;;8110180;29;20060;-89
2023/08/16 06:01:24;;;;;;;8.82;4.85;;;;;;;;;;8109941;29;20079;-89
2023/08/16 06:05:28;;;;;;;9.30;5.03;;;;;;;;;;8109956;29;20064;-89
2023/08/16 06:09:32;;;;;;;7.15;4.70;;;;;;;;;;8097603;29;20263;-88
2023/08/16 06:13:35;;;;;;;8.32;4.55;;;;;;;;;;8109523;29;20131;-88
2023/08/16 06:17:38;;;;;;;7.88;4.53;;;;;;;;;;8109629;29;20109;-88
2023/08/16 06:21:42;;;;;;;6.18;4.50;;;;;;;;;;8109458;29;20144;-88
2023/08/16 06:25:46;;;;;;;7.22;4.25;;;;;;;;;;8097287;29;20135;-88
2023/08/16 06:29:49;;;;;;;8.55;4.97;;;;;;;;;;8108957;29;20061;-89
2023/08/16 06:33:52;;;;;;;8.75;4.47;;;;;;;;;;8109142;29;20147;-89
2023/08/16 06:37:57;;;;;;;6.65;4.60;;;;;;;;;;8108822;29;20095;-89
2023/08/16 06:42:00;;;;;;;8.73;4.45;;;;;;;;;;8108520;29;20573;-89
2023/08/16 06:46:03;;;;;;;8.98;4.60;;;;;;;;;;8108611;29;20056;-88
2023/08/16 06:50:07;;;;;;;10.00;4.78;;;;;;;;;;8107589;29;20143;-88
2023/08/16 06:54:12;;;;;;;10.82;4.85;;;;;;;;;;8108295;29;20181;-88
2023/08/16 06:58:14;;;;;;;6.70;4.00;;;;;;;;;;8108854;29;20462;-88
2023/08/16 07:02:18;;;;;;;6.78;4.00;;;;;;;;;;8108256;29;20399;-89
2023/08/16 07:06:21;;;;;;;5.93;4.13;;;;;;;;;;8107695;29;20052;-88
2023/08/16 07:10:26;;;;;;;6.30;4.70;;;;;;;;;;8094953;29;20493;-89
2023/08/16 07:14:29;;;;;;;6.10;4.45;;;;;;;;;;8078835;29;20056;-88
2023/08/16 07:18:32;;;;;;;8.57;4.40;;;;;;;;;;8083514;29;20513;-89
2023/08/16 07:22:37;;;;;;;5.63;4.00;;;;;;;;;;8107344;29;20060;-88
2023/08/16 07:26:41;;;;;;;7.88;4.22;;;;;;;;;;8107589;29;20053;-89
2023/08/16 07:30:44;;;;;;;7.72;4.90;;;;;;;;;;8107793;29;20079;-88
2023/08/16 07:34:47;;;;;;;6.60;3.78;;;;;;;;;;8107261;29;20481;-88
2023/08/16 07:38:50;;;;;;;6.22;4.05;;;;;;;;;;8096784;29;20060;-88
2023/08/16 07:42:54;;;;;;;6.90;4.10;;;;;;;;;;8100663;29;20136;-89
2023/08/16 07:46:57;;;;;;;5.25;3.63;;;;;;;;;;8100091;29;20144;-88
2023/08/16 07:51:00;;;;;;;9.50;3.80;;;;;;;;;;8105741;29;20056;-89
2023/08/16 07:55:02;;;;;;;6.95;3.47;;;;;;;;;;8087443;29;20065;-88
2023/08/16 07:59:07;;;;;;;5.97;3.63;;;;;;;;;;8098325;29;20056;-89
2023/08/16 08:03:10;;;;;;;9.38;3.67;;;;;;;;;;8106618;29;20057;-88
2023/08/16 08:07:13;;;;;;;4.38;3.42;;;;;;;;;;8106197;29;20056;-88
2023/08/16 08:11:16;;;;;;;6.57;3.60;;;;;;;;;;8106070;29;20057;-87
2023/08/16 08:15:20;;;;;;;7.05;4.25;;;;;;;;;;8106058;29;20052;-88
2023/08/16 08:19:23;;;;;;;6.03;3.78;;;;;;;;;;8106231;29;20070;-88
2023/08/16 08:23:26;;;;;;;6.53;3.80;;;;;;;;;;8105892;29;20637;-88
2023/08/16 08:27:29;;;;;;;7.43;4.25;;;;;;;;;;8105771;29;20135;-88
2023/08/16 08:31:34;;;;;;;6.18;3.97;;;;;;;;;;8105619;29;20551;-89
2023/08/16 08:35:38;;;;;;;7.47;4.15;;;;;;;;;;8105439;29;20064;-88
2023/08/16 08:39:41;;;;;;;6.30;3.92;;;;;;;;;;8105563;29;20102;-88
2023/08/16 08:43:44;;;;;;;5.47;3.83;;;;;;;;;;8105565;29;20408;-87
2023/08/16 08:47:49;;;;;;;4.80;3.17;;;;;;;;;;8105218;29;20151;-88
2023/08/16 08:51:52;;;;;;;7.25;6.35;;;;;;;;;;8105590;29;20060;-89
2023/08/16 08:55:57;;;;;;;5.93;3.55;;;;;;;;;;8105277;29;20480;-88
2023/08/16 09:00:03;;;;;;;7.93;3.70;;;;;;;;;;8105427;29;20060;-88
2023/08/16 09:04:08;;;;;;;8.73;4.15;;;;;;;;;;8105131;29;20145;-88
2023/08/16 09:08:13;;;;;;;7.55;4.35;;;;;;;;;;8105264;29;20139;-87
2023/08/16 09:12:18;;;;;;;5.70;3.55;;;;;;;;;;8105345;29;20144;-88
2023/08/16 09:16:21;;;;;;;13.85;6.53;;;;;;;;;;8110677;29;20055;-88
2023/08/16 09:20:26;;;;;;;20.48;16.30;;;;;;;;;;8111037;29;20135;-89
2023/08/16 09:24:29;;;;;;;6.85;3.65;;;;;;;;;;8111544;29;20139;-86
2023/08/16 09:28:31;;;;;;;7.47;4.72;;;;;;;;;;8081547;29;20048;-88
2023/08/16 09:32:34;;;;;;;20.17;16.02;;;;;;;;;;8110826;29;20099;-89
2023/08/16 09:36:43;;;;;;;10.07;5.07;;;;;;;;;;8110445;29;20053;-88
2023/08/16 09:40:50;;;;;;;8.10;4.20;;;;;;;;;;8110332;29;20068;-87
2023/08/16 09:44:54;;;;;;;15.15;6.15;;;;;;;;;;8110439;29;20144;-87
2023/08/16 09:49:03;;;;;;;7.03;3.80;;;;;;;;;;8110251;29;20056;-88
2023/08/16 09:53:07;;;;;;;5.43;3.03;;;;;;;;;;8110232;29;20064;-88
2023/08/16 09:57:11;;;;;;;8.30;3.47;;;;;;;;;;8110510;29;20143;-88
2023/08/16 10:01:14;;;;;;;4.85;3.13;;;;;;;;;;8113482;29;20612;-88
2023/08/16 10:05:18;;;;;;;7.95;3.50;;;;;;;;;;8077928;29;20048;-89
2023/08/16 10:09:24;;;;;;;7.05;4.15;;;;;;;;;;8083353;29;20139;-87
2023/08/16 10:13:29;;;;;;;9.95;5.28;;;;;;;;;;8075567;29;20116;-88
2023/08/16 10:17:37;;;;;;;15.80;6.13;;;;;;;;;;8074945;29;20160;-89
2023/08/16 10:21:46;;;;;;;6.32;3.42;;;;;;;;;;8074487;29;20068;-88
2023/08/16 10:25:53;;;;;;;5.35;3.42;;;;;;;;;;8081541;29;20112;-87
2023/08/16 10:30:02;;;;;;;5.85;3.20;;;;;;;;;;8077109;29;20205;-89
2023/08/16 10:34:09;;;;;;;12.38;5.40;;;;;;;;;;8086790;29;20212;-88
2023/08/16 10:38:12;;;;;;;10.25;5.10;;;;;;;;;;8080843;29;20064;-88
2023/08/16 10:42:16;;;;;;;6.60;3.13;;;;;;;;;;8086192;29;20429;-89
2023/08/16 10:46:29;;;;;;;5.82;3.28;;;;;;;;;;8064712;29;20136;-87
2023/08/16 10:50:33;;;;;;;15.40;5.90;;;;;;;;;;8075762;29;20160;-88
2023/08/16 10:54:36;;;;;;;6.32;2.90;;;;;;;;;;8083447;29;20124;-88
2023/08/16 10:58:50;;;;;;;12.10;4.00;;;;;;;;;;8061654;29;20095;-88
2023/08/16 11:02:55;;;;;;;6.28;3.25;;;;;;;;;;8070410;29;20477;-88
2023/08/16 11:06:59;;;;;;;4.88;2.80;;;;;;;;;;8075029;29;20572;-88
2023/08/16 11:11:03;;;;;;;7.88;4.15;;;;;;;;;;8072390;29;20333;-88
2023/08/16 11:15:09;;;;;;;7.90;3.08;;;;;;;;;;8075058;29;20049;-88
2023/08/16 11:19:14;;;;;;;5.93;2.92;;;;;;;;;;8086028;29;20075;-88
2023/08/16 11:23:18;;;;;;;5.45;3.42;;;;;;;;;;8088397;29;20064;-88
2023/08/16 11:27:22;;;;;;;5.47;2.90;;;;;;;;;;8085440;29;20057;-87
2023/08/16 11:31:27;;;;;;;9.38;3.55;;;;;;;;;;8076212;29;20140;-89
2023/08/16 11:35:30;;;;;;;8.90;3.50;;;;;;;;;;8090388;29;20067;-88
2023/08/16 11:39:36;;;;;;;10.25;4.10;;;;;;;;;;8071775;29;20765;-88
2023/08/16 11:43:39;;;;;;;7.00;3.58;;;;;;;;;;8083846;29;20097;-88
2023/08/16 11:47:45;;;;;;;4.38;3.00;;;;;;;;;;8068883;29;20093;-90
2023/08/16 11:51:48;;;;;;;4.95;3.10;;;;;;;;;;8077713;29;20508;-88
2023/08/16 11:55:59;;;;;;;7.18;3.80;;;;;;;;;;8087252;29;20159;-89
2023/08/16 12:00:05;;;;;;;10.90;3.60;;;;;;;;;;8077919;29;20056;-88
2023/08/16 12:04:10;;;;;;;7.40;3.70;;;;;;;;;;8077408;29;20509;-88
2023/08/16 12:08:14;;;;;;;6.47;3.50;;;;;;;;;;8072859;29;20569;-88
2023/08/16 12:12:17;;;;;;;5.57;3.30;;;;;;;;;;8085487;29;20140;-88
2023/08/16 12:16:20;;;;;;;5.57;3.58;;;;;;;;;;8074073;29;20843;-87
2023/08/16 12:20:25;;;;;;;4.78;3.35;;;;;;;;;;8072676;29;20088;-88
2023/08/16 12:24:28;;;;;;;5.60;3.20;;;;;;;;;;8070630;29;20088;-87
2023/08/16 12:28:31;;;;;;;8.05;3.20;;;;;;;;;;8082607;29;20056;-88
2023/08/16 12:32:36;;;;;;;7.65;3.35;;;;;;;;;;8082826;29;20200;-88
2023/08/16 12:36:43;;;;;;;4.70;3.25;;;;;;;;;;8084744;29;20562;-88
2023/08/16 12:40:46;;;;;;;4.93;2.80;;;;;;;;;;8077824;29;20057;-87
2023/08/16 12:44:49;;;;;;;4.22;2.67;;;;;;;;;;8076011;29;20064;-87
2023/08/16 12:48:53;;;;;;;7.85;3.40;;;;;;;;;;8089018;29;20140;-89
2023/08/16 12:53:00;;;;;;;4.90;3.25;;;;;;;;;;8080636;29;20469;-89
2023/08/16 12:57:04;;;;;;;10.85;3.97;;;;;;;;;;8082498;29;20063;-89
2023/08/16 13:01:08;;;;;;;5.40;3.40;;;;;;;;;;8088225;29;20497;-89
2023/08/16 13:05:12;;;;;;;11.45;6.60;;;;;;;;;;8078955;29;20114;-88
2023/08/16 13:09:17;;;;;;;8.77;5.15;;;;;;;;;;8084038;29;20088;-88
2023/08/16 13:13:20;;;;;;;6.82;3.90;;;;;;;;;;8079911;29;20080;-88
2023/08/16 13:17:23;;;;;;;9.52;5.50;;;;;;;;;;8079267;29;20060;-88
2023/08/16 13:21:31;;;;;;;9.07;5.75;;;;;;;;;;8080374;29;20069;-89
2023/08/16 13:25:36;;;;;;;6.13;4.57;;;;;;;;;;8079726;29;20898;-89
2023/08/16 13:29:39;;;;;;;6.65;4.60;;;;;;;;;;8080126;29;20089;-89
2023/08/16 13:33:42;;;;;;;7.13;4.75;;;;;;;;;;8079281;29;20063;-90
2023/08/16 13:37:45;;;;;;;8.77;5.00;;;;;;;;;;8078282;29;20267;-89
2023/08/16 13:41:54;;;;;;;6.85;5.05;;;;;;;;;;8077559;29;20429;-89
2023/08/16 13:45:58;;;;;;;9.55;5.10;;;;;;;;;;8065824;29;20064;-89
2023/08/16 13:50:01;;;;;;;11.20;5.40;;;;;;;;;;8080672;29;20057;-88
2023/08/16 13:54:05;;;;;;;7.28;4.88;;;;;;;;;;8087757;29;20088;-88
2023/08/16 13:58:13;;;;;;;5.97;4.22;;;;;;;;;;8081815;29;20060;-88
2023/08/16 14:02:16;;;;;;;7.05;5.10;;;;;;;;;;8074915;29;20067;-89
2023/08/16 14:06:19;;;;;;;6.70;4.65;;;;;;;;;;8074462;29;20064;-89
2023/08/16 14:10:22;;;;;;;9.35;4.70;;;;;;;;;;8081336;29;20063;-89
2023/08/16 14:14:26;;;;;;;10.10;5.88;;;;;;;;;;8077955;29;20132;-88
2023/08/16 14:18:30;;;;;;;6.97;5.30;;;;;;;;;;8076907;29;20504;-88
2023/08/16 14:22:33;;;;;;;7.55;4.97;;;;;;;;;;8075500;29;20057;-88
2023/08/16 14:26:35;;;;;;;9.10;5.03;;;;;;;;;;8080862;29;20093;-88
2023/08/16 14:30:42;;;;;;;9.13;5.70;;;;;;;;;;8080495;29;20060;-88
2023/08/16 14:34:46;;;;;;;9.95;5.38;;;;;;;;;;8076298;29;20179;-88
2023/08/16 14:38:50;;;;;;;5.85;5.15;;;;;;;;;;8082353;29;20136;-88
2023/08/16 14:42:53;;;;;;;8.50;6.13;;;;;;;;;;8074134;29;20068;-87
2023/08/16 14:47:00;;;;;;;11.13;6.18;;;;;;;;;;8082863;29;20053;-89
2023/08/16 14:51:03;;;;;;;10.05;6.15;;;;;;;;;;8062028;29;20061;-88
2023/08/16 14:55:07;;;;;;;8.75;6.05;;;;;;;;;;8079795;29;20060;-88
2023/08/16 14:59:10;;;;;;;13.60;7.10;;;;;;;;;;8076932;29;20061;-88
2023/08/16 15:03:15;;;;;;;8.07;6.22;;;;;;;;;;8081226;29;20061;-88
2023/08/16 15:07:21;;;;;;;9.25;6.40;;;;;;;;;;8079605;29;20056;-88
2023/08/16 15:11:24;;;;;;;9.77;7.22;;;;;;;;;;8072324;29;20392;-88
2023/08/16 15:15:27;;;;;;;9.93;7.15;;;;;;;;;;8072493;29;20067;-89
2023/08/16 15:19:31;;;;;;;10.40;6.90;;;;;;;;;;8074950;29;20102;-87
2023/08/16 15:23:39;;;;;;;9.65;7.00;;;;;;;;;;8078435;29;20779;-88
2023/08/16 15:27:42;;;;;;;10.65;7.05;;;;;;;;;;8095429;29;20056;-88
2023/08/16 15:31:45;;;;;;;11.52;6.93;;;;;;;;;;8089262;29;20501;-88
2023/08/16 15:35:49;;;;;;;9.90;6.90;;;;;;;;;;8103017;29;20057;-87
2023/08/16 15:39:53;;;;;;;11.02;7.00;;;;;;;;;;8106192;29;20076;-88
2023/08/16 15:43:56;;;;;;;8.27;6.50;;;;;;;;;;8106919;29;20087;-88
2023/08/16 15:47:59;;;;;;;8.95;6.30;;;;;;;;;;8083489;29;20124;-87
2023/08/16 15:52:04;;;;;;;9.23;6.78;;;;;;;;;;8089904;29;20402;-88
2023/08/16 15:56:07;;;;;;;10.05;6.47;;;;;;;;;;8083431;29;20069;-87
2023/08/16 16:00:12;;;;;;;7.63;6.80;;;;;;;;;;8106569;29;20057;-87
2023/08/16 16:04:15;;;;;;;8.93;6.65;;;;;;;;;;8106588;29;20091;-88
2023/08/16 16:08:19;;;;;;;8.25;6.55;;;;;;;;;;8106490;29;20549;-87
2023/08/16 16:12:23;;;;;;;13.40;7.43;;;;;;;;;;8106112;29;20188;-87
2023/08/16 16:16:26;;;;;;;10.07;7.30;;;;;;;;;;8106283;29;20062;-87
2023/08/16 16:20:30;;;;;;;14.32;7.10;;;;;;;;;;8105981;29;20061;-88
2023/08/16 16:24:36;;;;;;;10.65;7.60;;;;;;;;;;8106563;29;20572;-87
2023/08/16 16:28:39;;;;;;;13.85;7.93;;;;;;;;;;8105980;29;20140;-87
2023/08/16 16:32:44;;;;;;;11.18;7.97;;;;;;;;;;8105985;29;20091;-87
2023/08/16 16:36:46;;;;;;;10.63;7.75;;;;;;;;;;8078218;29;20121;-88
2023/08/16 16:40:53;;;;;;;14.93;8.35;;;;;;;;;;8105796;29;20091;-87
2023/08/16 16:44:56;;;;;;;10.15;8.07;;;;;;;;;;8078105;29;20056;-88
2023/08/16 16:49:00;;;;;;;11.88;8.13;;;;;;;;;;8105784;29;20084;-88
2023/08/16 16:53:03;;;;;;;10.30;7.88;;;;;;;;;;8105330;29;20059;-87
2023/08/16 16:57:08;;;;;;;11.80;7.88;;;;;;;;;;8105590;29;20095;-88
2023/08/16 17:01:12;;;;;;;16.80;10.32;;;;;;;;;;8105571;29;20128;-87
2023/08/16 17:05:16;;;;;;;20.30;13.27;;;;;;;;;;8105471;29;20056;-87
2023/08/16 17:09:19;;;;;;;15.38;9.93;;;;;;;;;;8105325;29;20136;-87
2023/08/16 17:13:25;;;;;;;15.80;10.77;;;;;;;;;;8105441;29;20071;-87
2023/08/16 17:17:28;;;;;;;17.60;10.77;;;;;;;;;;8105443;29;20499;-87
2023/08/16 17:21:33;;;;;;;13.27;9.32;;;;;;;;;;8103952;29;20060;-85
2023/08/16 17:25:38;;;;;;;11.75;9.20;;;;;;;;;;8098100;29;21082;-84
2023/08/16 17:29:43;;;;;;;12.48;9.65;;;;;;;;;;8090634;29;20482;-84
2023/08/16 17:33:47;;;;;;;14.63;9.40;;;;;;;;;;8078746;29;20053;-86
2023/08/16 17:37:52;;;;;;;13.65;10.18;;;;;;;;;;8096796;29;20561;-88
2023/08/16 17:41:56;;;;;;;12.82;9.40;;;;;;;;;;8085907;29;20145;-87
2023/08/16 17:46:01;;;;;;;14.13;9.88;;;;;;;;;;8092602;29;20061;-86
2023/08/16 17:50:05;;;;;;;14.32;11.70;;;;;;;;;;8097571;29;20058;-86
2023/08/16 17:54:09;;;;;;;17.05;10.45;;;;;;;;;;8098733;29;20064;-87
2023/08/16 17:58:13;;;;;;;16.30;13.82;;;;;;;;;;8086751;29;20100;-88
2023/08/16 18:02:24;;;;;;;17.90;14.25;;;;;;;;;;8074964;29;20052;-86
2023/08/16 18:06:28;;;;;;;15.98;10.38;;;;;;;;;;8097770;29;20803;-87
2023/08/16 18:10:33;;;;;;;20.90;12.60;;;;;;;;;;8089975;29;20135;-87
2023/08/16 18:14:36;;;;;;;19.13;14.02;;;;;;;;;;8088572;29;20067;-88
2023/08/16 18:18:41;;;;;;;21.98;16.40;;;;;;;;;;8089939;29;20056;-89
2023/08/16 18:22:45;;;;;;;17.42;14.63;;;;;;;;;;8088702;29;20053;-88
2023/08/16 18:26:57;;;;;;;32.78;23.15;;;;;;;;;;8085493;29;20603;-88
2023/08/16 18:31:05;;;;;;;26.52;13.35;;;;;;;;;;8078428;29;20052;-89
2023/08/16 18:35:16;;;;;;;21.88;13.98;;;;;;;;;;8075053;29;20410;-89
2023/08/16 18:39:23;;;;;;;39.20;23.88;;;;;;;;;;8080718;29;20513;-87
2023/08/16 18:43:27;;;;;;;43.60;29.40;;;;;;;;;;8096773;29;20143;-89
2023/08/16 18:47:32;;;;;;;39.25;24.25;;;;;;;;;;8101026;29;20468;-88
2023/08/16 18:51:39;;;;;;;27.73;20.25;;;;;;;;;;8093606;29;20057;-88
2023/08/16 18:55:43;;;;;;;25.02;16.00;;;;;;;;;;8089021;29;20048;-88
2023/08/16 18:59:51;;;;;;;34.00;20.30;;;;;;;;;;8108512;29;20148;-87
2023/08/16 19:03:56;;;;;;;35.33;22.45;;;;;;;;;;8099937;29;20135;-88
2023/08/16 19:08:02;;;;;;;23.52;15.60;;;;;;;;;;8107628;29;20454;-88
2023/08/16 19:12:07;;;;;;;16.08;13.80;;;;;;;;;;8107632;29;20135;-88
2023/08/16 19:16:11;;;;;;;16.17;13.23;;;;;;;;;;8103709;29;20060;-88
2023/08/16 19:20:15;;;;;;;18.15;13.68;;;;;;;;;;8089876;29;20071;-88
2023/08/16 19:24:22;;;;;;;19.48;15.88;;;;;;;;;;8107756;29;20108;-87
2023/08/16 19:28:27;;;;;;;21.85;16.67;;;;;;;;;;8107350;29;20091;-88
2023/08/16 19:32:32;;;;;;;21.85;16.85;;;;;;;;;;8099883;29;20573;-87
2023/08/16 19:36:35;;;;;;;20.55;15.48;;;;;;;;;;8098937;29;20076;-88
2023/08/16 19:40:46;;;;;;;19.52;15.85;;;;;;;;;;8106997;29;20065;-88
2023/08/16 19:44:52;;;;;;;20.63;14.55;;;;;;;;;;8106748;29;20049;-87
2023/08/16 19:48:56;;;;;;;23.08;14.52;;;;;;;;;;8106012;29;20131;-85
2023/08/16 19:53:00;;;;;;;20.70;15.55;;;;;;;;;;8099106;29;20485;-86
2023/08/16 19:57:06;;;;;;;23.00;15.13;;;;;;;;;;8100875;29;20056;-87
2023/08/16 20:01:10;;;;;;;17.23;14.20;;;;;;;;;;8105978;29;20516;-88
2023/08/16 20:05:16;;;;;;;21.20;14.85;;;;;;;;;;8105424;29;20143;-87
2023/08/16 20:09:20;;;;;;;18.67;14.07;;;;;;;;;;8092476;29;20063;-86
2023/08/16 20:13:26;;;;;;;21.40;15.32;;;;;;;;;;8099413;29;20068;-87
2023/08/16 20:17:32;;;;;;;25.42;14.73;;;;;;;;;;8106009;29;20071;-87
2023/08/16 20:21:38;;;;;;;16.98;14.13;;;;;;;;;;8106419;29;20062;-87
2023/08/16 20:25:42;;;;;;;20.35;14.13;;;;;;;;;;8106343;29;20091;-87
2023/08/16 20:29:51;;;;;;;16.67;14.25;;;;;;;;;;8105659;29;20052;-88
2023/08/16 20:33:55;;;;;;;21.20;14.35;;;;;;;;;;8097089;29;20404;-88
2023/08/16 20:37:59;;;;;;;17.02;14.30;;;;;;;;;;8105390;29;20061;-88
2023/08/16 20:42:08;;;;;;;17.15;14.63;;;;;;;;;;8105739;29;20084;-88
2023/08/16 20:46:17;;;;;;;;;;;;;;;;;;8106162;29;20137;-89
2023/08/16 20:50:35;;;;;;;15.95;11.90;;;;;;;;;;8089197;29;19995;-87
2023/08/16 20:54:40;;;;;;;16.15;13.13;;;;;;;;;;8105478;29;20060;-86
2023/08/16 20:58:43;;;;;;;17.45;14.05;;;;;;;;;;8105515;29;20135;-87
2023/08/16 21:02:48;;;;;;;17.90;11.80;;;;;;;;;;8105252;29;20541;-86
2023/08/16 21:06:51;;;;;;;16.48;11.77;;;;;;;;;;8092672;29;20399;-86
2023/08/16 21:10:53;;;;;;;15.82;12.10;;;;;;;;;;8096269;29;20055;-86
2023/08/16 21:14:56;;;;;;;17.73;11.90;;;;;;;;;;8110768;29;20522;-86
2023/08/16 21:19:01;;;;;;;13.07;9.80;;;;;;;;;;8110655;29;20049;-86
2023/08/16 21:23:04;;;;;;;12.50;9.38;;;;;;;;;;8110771;29;20088;-87
2023/08/16 21:27:06;;;;;;;14.93;10.23;;;;;;;;;;8082084;29;20417;-87
2023/08/16 21:31:09;;;;;;;19.63;11.18;;;;;;;;;;8110550;29;20128;-86
2023/08/16 21:35:15;;;;;;;14.55;9.77;;;;;;;;;;8108145;29;20131;-87
2023/08/16 21:39:18;;;;;;;13.65;10.75;;;;;;;;;;8110794;29;20564;-87
2023/08/16 21:43:20;;;;;;;13.23;10.50;;;;;;;;;;8098024;29;20075;-86
2023/08/16 21:47:25;;;;;;;16.20;10.50;;;;;;;;;;8110381;29;20064;-87
2023/08/16 21:51:32;;;;;;;13.98;9.40;;;;;;;;;;8109142;29;20561;-87
2023/08/16 21:55:38;;;;;;;12.15;9.82;;;;;;;;;;8104729;29;20466;-86
2023/08/16 21:59:42;;;;;;;10.95;8.05;;;;;;;;;;8108941;29;20087;-87
2023/08/16 22:03:46;;;;;;;10.60;7.18;;;;;;;;;;8109786;29;20067;-87
2023/08/16 22:07:50;;;;;;;11.15;6.95;;;;;;;;;;8103003;29;20424;-87
2023/08/16 22:11:53;;;;;;;9.63;7.13;;;;;;;;;;8109142;29;20053;-87
2023/08/16 22:15:56;;;;;;;9.02;6.97;;;;;;;;;;8109239;29;20056;-87
2023/08/16 22:19:59;;;;;;;9.80;6.70;;;;;;;;;;8108642;29;20139;-87
2023/08/16 22:24:05;;;;;;;9.38;6.78;;;;;;;;;;8084778;29;20060;-89
2023/08/16 22:28:08;;;;;;;8.43;6.15;;;;;;;;;;8100198;29;20048;-88
2023/08/16 22:32:17;;;;;;;7.57;5.85;;;;;;;;;;8088865;29;20052;-88
2023/08/16 22:36:20;;;;;;;10.45;6.20;;;;;;;;;;8085356;29;20406;-89
2023/08/16 22:40:24;;;;;;;9.50;6.18;;;;;;;;;;8089793;29;20061;-88
2023/08/16 22:44:27;;;;;;;9.70;5.85;;;;;;;;;;8090039;29;20680;-88
2023/08/16 22:48:31;;;;;;;11.40;6.22;;;;;;;;;;8092682;29;20140;-88
2023/08/16 22:52:33;;;;;;;7.72;5.97;;;;;;;;;;8085427;29;20092;-87
2023/08/16 22:56:38;;;;;;;8.50;5.40;;;;;;;;;;8090285;29;20064;-88
2023/08/16 23:00:41;;;;;;;9.35;5.80;;;;;;;;;;8105145;29;20080;-87
2023/08/16 23:04:45;;;;;;;10.55;5.75;;;;;;;;;;8107840;29;20059;-86
2023/08/16 23:08:48;;;;;;;11.63;6.93;;;;;;;;;;8107148;29;20059;-87
2023/08/16 23:12:52;;;;;;;8.52;5.68;;;;;;;;;;8106947;29;20131;-87
2023/08/16 23:16:55;;;;;;;10.07;6.07;;;;;;;;;;8107540;29;20056;-86
2023/08/16 23:20:58;;;;;;;11.52;5.65;;;;;;;;;;8105363;29;20450;-86
2023/08/16 23:25:01;;;;;;;8.25;5.32;;;;;;;;;;8107576;29;20176;-86
2023/08/16 23:29:05;;;;;;;9.95;5.70;;;;;;;;;;8105750;29;20052;-87
2023/08/16 23:33:09;;;;;;;7.30;5.20;;;;;;;;;;8100765;29;20437;-86
2023/08/16 23:37:11;;;;;;;11.65;6.40;;;;;;;;;;8106809;29;20057;-86
2023/08/16 23:41:15;;;;;;;9.10;5.70;;;;;;;;;;8104300;29;20061;-86
2023/08/16 23:45:20;;;;;;;10.70;6.00;;;;;;;;;;8106792;29;20500;-86
2023/08/16 23:49:23;;;;;;;8.35;5.75;;;;;;;;;;8105815;29;20148;-86
2023/08/16 23:53:26;;;;;;;7.95;5.47;;;;;;;;;;8106203;29;20112;-86
2023/08/16 23:57:29;;;;;;;8.57;5.85;;;;;;;;;;8094298;29;20055;-87
